sensor_id;sensor_type;location;lat;lon;timestamp;pressure;altitude;pressure_sealevel;temperature;humidity
64614;BME280;51025;37.772;-122.432;2023-06-24T00:00:18;101259.82;;;21.71;26.70
64614;BME280;51025;37.772;-122.432;2023-06-24T00:02:47;101257.70;;;22.27;26.36
64614;BME280;51025;37.772;-122.432;2023-06-24T00:05:15;101254.61;;;22.33;26.38
64614;BME280;51025;37.772;-122.432;2023-06-24T00:07:43;101250.94;;;22.27;26.38
64614;BME280;51025;37.772;-122.432;2023-06-24T00:10:12;101247.02;;;22.43;26.25
64614;BME280;51025;37.772;-122.432;2023-06-24T00:12:40;101244.66;;;21.86;26.44
64614;BME280;51025;37.772;-122.432;2023-06-24T00:15:10;101249.88;;;22.23;26.59
64614;BME280;51025;37.772;-122.432;2023-06-24T00:17:38;101252.21;;;22.30;26.62
64614;BME280;51025;37.772;-122.432;2023-06-24T00:20:07;101256.59;;;22.29;26.66
64614;BME280;51025;37.772;-122.432;2023-06-24T00:22:35;101258.80;;;22.25;26.81
64614;BME280;51025;37.772;-122.432;2023-06-24T00:25:04;101259.49;;;22.11;26.98
64614;BME280;51025;37.772;-122.432;2023-06-24T00:27:32;101262.97;;;21.29;27.02
64614;BME280;51025;37.772;-122.432;2023-06-24T00:30:00;101262.51;;;22.28;26.87
64614;BME280;51025;37.772;-122.432;2023-06-24T00:32:29;101261.76;;;21.86;26.84
64614;BME280;51025;37.772;-122.432;2023-06-24T00:34:57;101257.03;;;22.09;26.98
64614;BME280;51025;37.772;-122.432;2023-06-24T00:37:25;101254.47;;;21.41;26.92
64614;BME280;51025;37.772;-122.432;2023-06-24T00:39:53;101255.22;;;22.47;26.68
64614;BME280;51025;37.772;-122.432;2023-06-24T00:42:21;101251.62;;;21.70;27.04
64614;BME280;51025;37.772;-122.432;2023-06-24T00:44:50;101250.56;;;21.91;26.94
64614;BME280;51025;37.772;-122.432;2023-06-24T00:47:19;101257.63;;;22.14;26.44
64614;BME280;51025;37.772;-122.432;2023-06-24T00:49:49;101255.30;;;22.52;26.38
64614;BME280;51025;37.772;-122.432;2023-06-24T00:52:18;101254.67;;;21.80;26.47
64614;BME280;51025;37.772;-122.432;2023-06-24T00:54:47;101255.70;;;21.73;26.56
64614;BME280;51025;37.772;-122.432;2023-06-24T00:57:15;101256.72;;;22.60;26.17
64614;BME280;51025;37.772;-122.432;2023-06-24T00:59:43;101255.51;;;22.32;25.98
64614;BME280;51025;37.772;-122.432;2023-06-24T01:02:12;101257.97;;;21.63;26.44
64614;BME280;51025;37.772;-122.432;2023-06-24T01:04:40;101257.29;;;21.98;26.23
64614;BME280;51025;37.772;-122.432;2023-06-24T01:07:09;101257.48;;;21.83;26.01
64614;BME280;51025;37.772;-122.432;2023-06-24T01:09:37;101251.75;;;21.95;26.15
64614;BME280;51025;37.772;-122.432;2023-06-24T01:12:06;101250.18;;;22.43;26.14
64614;BME280;51025;37.772;-122.432;2023-06-24T01:14:35;101250.35;;;21.82;26.30
64614;BME280;51025;37.772;-122.432;2023-06-24T01:17:08;101258.78;;;22.01;26.13
64614;BME280;51025;37.772;-122.432;2023-06-24T01:20:02;101256.57;;;21.55;26.54
64614;BME280;51025;37.772;-122.432;2023-06-24T01:25:46;101263.35;;;21.87;26.45
64614;BME280;51025;37.772;-122.432;2023-06-24T01:28:37;101261.91;;;21.66;26.41
64614;BME280;51025;37.772;-122.432;2023-06-24T01:31:52;101261.30;;;22.79;26.21
64614;BME280;51025;37.772;-122.432;2023-06-24T01:34:28;101259.85;;;21.91;26.66
64614;BME280;51025;37.772;-122.432;2023-06-24T01:37:11;101265.08;;;22.25;26.80
64614;BME280;51025;37.772;-122.432;2023-06-24T01:39:46;101268.06;;;21.90;26.79
64614;BME280;51025;37.772;-122.432;2023-06-24T01:42:17;101268.05;;;22.62;26.56
64614;BME280;51025;37.772;-122.432;2023-06-24T01:44:48;101268.45;;;21.45;26.99
64614;BME280;51025;37.772;-122.432;2023-06-24T01:47:21;101265.36;;;22.08;26.77
64614;BME280;51025;37.772;-122.432;2023-06-24T01:49:53;101262.58;;;22.09;26.75
64614;BME280;51025;37.772;-122.432;2023-06-24T01:52:23;101263.06;;;21.35;27.09
64614;BME280;51025;37.772;-122.432;2023-06-24T01:54:53;101264.61;;;22.44;26.84
64614;BME280;51025;37.772;-122.432;2023-06-24T01:57:23;101264.59;;;21.37;27.05
64614;BME280;51025;37.772;-122.432;2023-06-24T01:59:54;101260.28;;;21.61;27.17
64614;BME280;51025;37.772;-122.432;2023-06-24T02:02:24;101259.42;;;21.25;27.22
64614;BME280;51025;37.772;-122.432;2023-06-24T02:04:53;101259.53;;;22.09;26.84
64614;BME280;51025;37.772;-122.432;2023-06-24T02:07:23;101266.25;;;21.41;27.11
64614;BME280;51025;37.772;-122.432;2023-06-24T02:09:52;101263.42;;;21.44;27.41
64614;BME280;51025;37.772;-122.432;2023-06-24T02:12:21;101263.03;;;21.28;27.58
64614;BME280;51025;37.772;-122.432;2023-06-24T02:14:53;101264.48;;;21.83;27.49
64614;BME280;51025;37.772;-122.432;2023-06-24T02:17:23;101265.10;;;21.91;27.42
64614;BME280;51025;37.772;-122.432;2023-06-24T02:19:52;101270.89;;;21.93;27.44
64614;BME280;51025;37.772;-122.432;2023-06-24T02:22:22;101277.24;;;21.37;27.51
64614;BME280;51025;37.772;-122.432;2023-06-24T02:24:51;101270.16;;;21.68;27.50
64614;BME280;51025;37.772;-122.432;2023-06-24T02:27:21;101271.07;;;21.32;27.42
64614;BME280;51025;37.772;-122.432;2023-06-24T02:29:49;101269.53;;;21.66;27.50
64614;BME280;51025;37.772;-122.432;2023-06-24T02:32:18;101272.11;;;21.38;27.66
64614;BME280;51025;37.772;-122.432;2023-06-24T02:34:47;101271.51;;;21.09;27.60
64614;BME280;51025;37.772;-122.432;2023-06-24T02:37:15;101268.34;;;21.57;27.59
64614;BME280;51025;37.772;-122.432;2023-06-24T02:39:44;101265.73;;;21.33;27.49
64614;BME280;51025;37.772;-122.432;2023-06-24T02:42:12;101261.90;;;21.36;27.55
64614;BME280;51025;37.772;-122.432;2023-06-24T02:44:40;101257.33;;;21.66;27.75
64614;BME280;51025;37.772;-122.432;2023-06-24T02:47:11;101255.59;;;21.32;28.06
64614;BME280;51025;37.772;-122.432;2023-06-24T02:49:41;101255.20;;;21.73;27.73
64614;BME280;51025;37.772;-122.432;2023-06-24T02:52:10;101254.70;;;21.45;28.02
64614;BME280;51025;37.772;-122.432;2023-06-24T02:54:39;101254.58;;;21.49;28.09
64614;BME280;51025;37.772;-122.432;2023-06-24T02:57:09;101253.12;;;21.52;28.18
64614;BME280;51025;37.772;-122.432;2023-06-24T02:59:38;101254.13;;;20.73;28.57
64614;BME280;51025;37.772;-122.432;2023-06-24T03:02:06;101252.23;;;21.45;28.31
64614;BME280;51025;37.772;-122.432;2023-06-24T03:04:35;101250.17;;;21.32;28.43
64614;BME280;51025;37.772;-122.432;2023-06-24T03:07:04;101250.99;;;21.32;28.41
64614;BME280;51025;37.772;-122.432;2023-06-24T03:09:34;101254.64;;;21.80;28.41
64614;BME280;51025;37.772;-122.432;2023-06-24T03:12:04;101257.67;;;21.79;28.21
64614;BME280;51025;37.772;-122.432;2023-06-24T03:14:33;101256.44;;;20.56;28.76
64614;BME280;51025;37.772;-122.432;2023-06-24T03:17:01;101263.96;;;21.30;28.89
64614;BME280;51025;37.772;-122.432;2023-06-24T03:19:29;101264.81;;;21.16;28.79
64614;BME280;51025;37.772;-122.432;2023-06-24T03:21:57;101267.30;;;21.94;28.84
64614;BME280;51025;37.772;-122.432;2023-06-24T03:24:25;101272.23;;;21.26;29.88
64614;BME280;51025;37.772;-122.432;2023-06-24T03:26:53;101270.71;;;22.17;29.66
64614;BME280;51025;37.772;-122.432;2023-06-24T03:29:23;101273.41;;;21.99;29.84
64614;BME280;51025;37.772;-122.432;2023-06-24T03:31:51;101275.99;;;21.89;29.48
64614;BME280;51025;37.772;-122.432;2023-06-24T03:34:19;101279.66;;;22.04;29.65
64614;BME280;51025;37.772;-122.432;2023-06-24T03:36:48;101282.91;;;21.95;29.69
64614;BME280;51025;37.772;-122.432;2023-06-24T03:39:16;101282.24;;;22.07;29.65
64614;BME280;51025;37.772;-122.432;2023-06-24T03:41:44;101285.37;;;21.62;29.56
64614;BME280;51025;37.772;-122.432;2023-06-24T03:44:12;101283.78;;;21.68;29.57
64614;BME280;51025;37.772;-122.432;2023-06-24T03:46:40;101287.75;;;21.43;29.50
64614;BME280;51025;37.772;-122.432;2023-06-24T03:49:08;101292.78;;;21.98;29.71
64614;BME280;51025;37.772;-122.432;2023-06-24T03:51:37;101295.19;;;21.95;29.31
64614;BME280;51025;37.772;-122.432;2023-06-24T03:54:04;101300.39;;;21.82;29.43
64614;BME280;51025;37.772;-122.432;2023-06-24T03:56:32;101299.68;;;21.58;29.53
64614;BME280;51025;37.772;-122.432;2023-06-24T03:59:01;101302.11;;;21.30;29.46
64614;BME280;51025;37.772;-122.432;2023-06-24T04:01:29;101297.07;;;21.34;29.36
64614;BME280;51025;37.772;-122.432;2023-06-24T04:03:57;101301.02;;;22.26;29.21
64614;BME280;51025;37.772;-122.432;2023-06-24T04:06:26;101305.28;;;21.34;28.99
64614;BME280;51025;37.772;-122.432;2023-06-24T04:08:54;101302.66;;;21.56;29.45
64614;BME280;51025;37.772;-122.432;2023-06-24T04:11:23;101305.00;;;21.48;29.14
64614;BME280;51025;37.772;-122.432;2023-06-24T04:13:52;101303.99;;;21.83;29.11
64614;BME280;51025;37.772;-122.432;2023-06-24T04:16:20;101304.36;;;21.61;29.21
64614;BME280;51025;37.772;-122.432;2023-06-24T04:18:48;101300.84;;;21.68;29.12
64614;BME280;51025;37.772;-122.432;2023-06-24T04:21:17;101301.21;;;21.64;29.06
64614;BME280;51025;37.772;-122.432;2023-06-24T04:23:45;101299.11;;;21.67;29.01
64614;BME280;51025;37.772;-122.432;2023-06-24T04:26:13;101297.41;;;21.68;28.89
64614;BME280;51025;37.772;-122.432;2023-06-24T04:28:41;101294.28;;;21.49;29.02
64614;BME280;51025;37.772;-122.432;2023-06-24T04:31:09;101294.11;;;22.12;28.94
64614;BME280;51025;37.772;-122.432;2023-06-24T04:33:37;101297.76;;;22.21;28.46
64614;BME280;51025;37.772;-122.432;2023-06-24T04:36:05;101298.73;;;22.48;28.19
64614;BME280;51025;37.772;-122.432;2023-06-24T04:38:33;101294.87;;;21.75;28.50
64614;BME280;51025;37.772;-122.432;2023-06-24T04:41:02;101290.02;;;22.29;28.36
64614;BME280;51025;37.772;-122.432;2023-06-24T04:43:30;101289.98;;;21.41;28.71
64614;BME280;51025;37.772;-122.432;2023-06-24T04:45:58;101292.82;;;22.03;28.61
64614;BME280;51025;37.772;-122.432;2023-06-24T04:48:27;101290.54;;;21.69;28.51
64614;BME280;51025;37.772;-122.432;2023-06-24T04:50:56;101288.76;;;21.64;28.51
64614;BME280;51025;37.772;-122.432;2023-06-24T04:53:24;101289.29;;;21.68;28.43
64614;BME280;51025;37.772;-122.432;2023-06-24T04:55:53;101285.10;;;22.06;28.36
64614;BME280;51025;37.772;-122.432;2023-06-24T04:58:21;101286.69;;;21.54;28.55
64614;BME280;51025;37.772;-122.432;2023-06-24T05:00:49;101290.42;;;21.79;28.65
64614;BME280;51025;37.772;-122.432;2023-06-24T05:03:18;101286.46;;;22.10;28.67
64614;BME280;51025;37.772;-122.432;2023-06-24T05:05:46;101281.03;;;21.99;28.77
64614;BME280;51025;37.772;-122.432;2023-06-24T05:08:15;101280.07;;;22.04;28.70
64614;BME280;51025;37.772;-122.432;2023-06-24T05:10:43;101282.29;;;21.86;28.89
64614;BME280;51025;37.772;-122.432;2023-06-24T05:13:11;101283.74;;;22.02;28.73
64614;BME280;51025;37.772;-122.432;2023-06-24T05:15:39;101281.35;;;21.92;28.82
64614;BME280;51025;37.772;-122.432;2023-06-24T05:18:07;101286.41;;;21.59;28.71
64614;BME280;51025;37.772;-122.432;2023-06-24T05:20:35;101290.72;;;21.16;28.78
64614;BME280;51025;37.772;-122.432;2023-06-24T05:23:03;101289.95;;;21.44;28.87
64614;BME280;51025;37.772;-122.432;2023-06-24T05:25:32;101290.21;;;21.18;28.81
64614;BME280;51025;37.772;-122.432;2023-06-24T05:28:00;101292.11;;;21.96;28.80
64614;BME280;51025;37.772;-122.432;2023-06-24T05:30:28;101294.68;;;21.20;28.75
64614;BME280;51025;37.772;-122.432;2023-06-24T05:32:56;101291.87;;;21.34;28.92
64614;BME280;51025;37.772;-122.432;2023-06-24T05:35:24;101290.63;;;21.11;28.85
64614;BME280;51025;37.772;-122.432;2023-06-24T05:37:52;101292.69;;;21.30;28.95
64614;BME280;51025;37.772;-122.432;2023-06-24T05:40:21;101291.68;;;21.46;28.83
64614;BME280;51025;37.772;-122.432;2023-06-24T05:42:49;101288.61;;;22.36;28.37
64614;BME280;51025;37.772;-122.432;2023-06-24T05:45:17;101291.36;;;21.62;28.83
64614;BME280;51025;37.772;-122.432;2023-06-24T05:47:45;101292.21;;;22.00;28.65
64614;BME280;51025;37.772;-122.432;2023-06-24T05:50:13;101288.59;;;21.95;28.94
64614;BME280;51025;37.772;-122.432;2023-06-24T05:52:41;101287.28;;;21.98;28.97
64614;BME280;51025;37.772;-122.432;2023-06-24T05:55:10;101286.55;;;21.19;28.98
64614;BME280;51025;37.772;-122.432;2023-06-24T05:57:38;101290.85;;;22.10;28.54
64614;BME280;51025;37.772;-122.432;2023-06-24T06:00:07;101291.34;;;21.68;28.91
64614;BME280;51025;37.772;-122.432;2023-06-24T06:02:35;101290.67;;;21.57;28.70
64614;BME280;51025;37.772;-122.432;2023-06-24T06:05:04;101289.64;;;22.70;28.42
64614;BME280;51025;37.772;-122.432;2023-06-24T06:07:32;101290.80;;;21.79;28.86
64614;BME280;51025;37.772;-122.432;2023-06-24T06:10:00;101289.25;;;22.53;28.61
64614;BME280;51025;37.772;-122.432;2023-06-24T06:12:28;101288.90;;;21.19;29.03
64614;BME280;51025;37.772;-122.432;2023-06-24T06:14:56;101283.80;;;22.07;28.96
64614;BME280;51025;37.772;-122.432;2023-06-24T06:17:24;101278.03;;;21.36;28.54
64614;BME280;51025;37.772;-122.432;2023-06-24T06:19:52;101276.76;;;22.27;28.78
64614;BME280;51025;37.772;-122.432;2023-06-24T06:22:21;101276.42;;;22.13;28.48
64614;BME280;51025;37.772;-122.432;2023-06-24T06:24:50;101282.97;;;21.54;28.94
64614;BME280;51025;37.772;-122.432;2023-06-24T06:27:18;101282.43;;;22.21;28.38
64614;BME280;51025;37.772;-122.432;2023-06-24T06:29:46;101286.85;;;21.46;29.00
64614;BME280;51025;37.772;-122.432;2023-06-24T06:32:14;101291.05;;;22.38;28.53
64614;BME280;51025;37.772;-122.432;2023-06-24T06:34:42;101290.94;;;22.08;28.78
64614;BME280;51025;37.772;-122.432;2023-06-24T06:37:10;101288.75;;;22.17;28.33
64614;BME280;51025;37.772;-122.432;2023-06-24T06:39:38;101282.77;;;21.57;28.53
64614;BME280;51025;37.772;-122.432;2023-06-24T06:42:07;101276.48;;;21.53;28.82
64614;BME280;51025;37.772;-122.432;2023-06-24T06:44:35;101272.35;;;21.38;28.62
64614;BME280;51025;37.772;-122.432;2023-06-24T06:47:03;101268.08;;;21.70;29.03
64614;BME280;51025;37.772;-122.432;2023-06-24T06:49:32;101263.12;;;21.53;28.72
64614;BME280;51025;37.772;-122.432;2023-06-24T06:52:00;101259.12;;;21.43;28.84
64614;BME280;51025;37.772;-122.432;2023-06-24T06:54:28;101252.37;;;20.92;28.95
64614;BME280;51025;37.772;-122.432;2023-06-24T06:57:01;101250.64;;;20.93;28.93
64614;BME280;51025;37.772;-122.432;2023-06-24T06:59:29;101249.49;;;21.06;28.79
64614;BME280;51025;37.772;-122.432;2023-06-24T07:01:57;101248.15;;;21.16;28.99
64614;BME280;51025;37.772;-122.432;2023-06-24T07:04:26;101244.20;;;20.80;28.94
64614;BME280;51025;37.772;-122.432;2023-06-24T07:06:54;101237.17;;;21.64;28.89
64614;BME280;51025;37.772;-122.432;2023-06-24T07:09:22;101232.31;;;21.32;28.78
64614;BME280;51025;37.772;-122.432;2023-06-24T07:11:51;101230.73;;;21.21;28.91
64614;BME280;51025;37.772;-122.432;2023-06-24T07:14:20;101232.22;;;21.56;28.89
64614;BME280;51025;37.772;-122.432;2023-06-24T07:16:49;101232.88;;;21.62;28.81
64614;BME280;51025;37.772;-122.432;2023-06-24T07:19:16;101242.78;;;21.61;28.80
64614;BME280;51025;37.772;-122.432;2023-06-24T07:21:44;101242.61;;;21.56;28.87
64614;BME280;51025;37.772;-122.432;2023-06-24T07:24:12;101242.16;;;21.63;28.81
64614;BME280;51025;37.772;-122.432;2023-06-24T07:26:41;101240.81;;;21.42;28.93
64614;BME280;51025;37.772;-122.432;2023-06-24T07:29:09;101237.11;;;21.44;28.93
64614;BME280;51025;37.772;-122.432;2023-06-24T07:31:38;101236.13;;;20.88;28.97
64614;BME280;51025;37.772;-122.432;2023-06-24T07:34:06;101238.64;;;21.48;28.81
64614;BME280;51025;37.772;-122.432;2023-06-24T07:36:34;101236.24;;;21.87;28.48
64614;BME280;51025;37.772;-122.432;2023-06-24T07:39:02;101236.16;;;21.51;28.74
64614;BME280;51025;37.772;-122.432;2023-06-24T07:41:30;101239.97;;;20.93;28.92
64614;BME280;51025;37.772;-122.432;2023-06-24T07:43:58;101239.95;;;21.37;28.84
64614;BME280;51025;37.772;-122.432;2023-06-24T07:46:26;101240.30;;;20.92;28.85
64614;BME280;51025;37.772;-122.432;2023-06-24T07:48:54;101244.55;;;21.32;28.89
64614;BME280;51025;37.772;-122.432;2023-06-24T07:51:22;101245.50;;;20.92;28.84
64614;BME280;51025;37.772;-122.432;2023-06-24T07:53:51;101246.74;;;21.39;28.81
64614;BME280;51025;37.772;-122.432;2023-06-24T07:56:19;101241.76;;;21.45;28.70
64614;BME280;51025;37.772;-122.432;2023-06-24T07:58:47;101235.99;;;21.04;28.70
64614;BME280;51025;37.772;-122.432;2023-06-24T08:01:15;101230.63;;;21.27;28.83
64614;BME280;51025;37.772;-122.432;2023-06-24T08:03:43;101232.60;;;21.20;28.92
64614;BME280;51025;37.772;-122.432;2023-06-24T08:06:11;101234.93;;;21.57;28.86
64614;BME280;51025;37.772;-122.432;2023-06-24T08:08:39;101234.34;;;21.24;28.80
64614;BME280;51025;37.772;-122.432;2023-06-24T08:11:07;101230.06;;;21.52;28.60
64614;BME280;51025;37.772;-122.432;2023-06-24T08:13:35;101225.78;;;20.80;28.82
64614;BME280;51025;37.772;-122.432;2023-06-24T08:16:04;101223.54;;;21.21;28.89
64614;BME280;51025;37.772;-122.432;2023-06-24T08:18:32;101220.40;;;21.18;28.90
64614;BME280;51025;37.772;-122.432;2023-06-24T08:21:01;101213.37;;;21.18;28.87
64614;BME280;51025;37.772;-122.432;2023-06-24T08:23:29;101210.93;;;21.16;28.86
64614;BME280;51025;37.772;-122.432;2023-06-24T08:25:57;101209.38;;;21.26;28.82
64614;BME280;51025;37.772;-122.432;2023-06-24T08:28:25;101212.90;;;20.34;28.92
64614;BME280;51025;37.772;-122.432;2023-06-24T08:30:53;101216.56;;;21.28;28.74
64614;BME280;51025;37.772;-122.432;2023-06-24T08:33:22;101217.90;;;20.81;28.77
64614;BME280;51025;37.772;-122.432;2023-06-24T08:35:50;101216.63;;;21.31;28.65
64614;BME280;51025;37.772;-122.432;2023-06-24T08:38:18;101209.68;;;21.59;28.66
64614;BME280;51025;37.772;-122.432;2023-06-24T08:40:47;101216.49;;;21.12;28.87
64614;BME280;51025;37.772;-122.432;2023-06-24T08:43:17;101216.54;;;21.12;28.82
64614;BME280;51025;37.772;-122.432;2023-06-24T08:45:46;101210.70;;;21.19;28.77
64614;BME280;51025;37.772;-122.432;2023-06-24T08:48:14;101207.33;;;21.12;28.81
64614;BME280;51025;37.772;-122.432;2023-06-24T08:50:45;101206.04;;;21.12;28.82
64614;BME280;51025;37.772;-122.432;2023-06-24T08:53:14;101201.91;;;21.02;28.89
64614;BME280;51025;37.772;-122.432;2023-06-24T08:55:44;101201.04;;;21.06;28.83
64614;BME280;51025;37.772;-122.432;2023-06-24T08:58:13;101205.74;;;20.95;28.93
64614;BME280;51025;37.772;-122.432;2023-06-24T09:00:42;101206.29;;;20.93;28.93
64614;BME280;51025;37.772;-122.432;2023-06-24T09:03:10;101203.42;;;20.96;28.85
64614;BME280;51025;37.772;-122.432;2023-06-24T09:05:38;101201.59;;;21.07;28.76
64614;BME280;51025;37.772;-122.432;2023-06-24T09:08:06;101201.36;;;20.83;28.97
64614;BME280;51025;37.772;-122.432;2023-06-24T09:10:36;101204.79;;;20.90;28.83
64614;BME280;51025;37.772;-122.432;2023-06-24T09:13:06;101208.33;;;20.93;28.83
64614;BME280;51025;37.772;-122.432;2023-06-24T09:15:34;101210.15;;;20.88;28.89
64614;BME280;51025;37.772;-122.432;2023-06-24T09:18:04;101211.82;;;21.08;28.71
64614;BME280;51025;37.772;-122.432;2023-06-24T09:20:33;101213.07;;;20.73;28.96
64614;BME280;51025;37.772;-122.432;2023-06-24T09:23:03;101210.09;;;20.99;28.72
64614;BME280;51025;37.772;-122.432;2023-06-24T09:25:31;101205.03;;;20.31;28.95
64614;BME280;51025;37.772;-122.432;2023-06-24T09:28:00;101200.21;;;20.78;28.91
64614;BME280;51025;37.772;-122.432;2023-06-24T09:30:28;101202.04;;;20.40;28.87
64614;BME280;51025;37.772;-122.432;2023-06-24T09:32:57;101199.38;;;20.81;28.88
64614;BME280;51025;37.772;-122.432;2023-06-24T09:35:27;101191.86;;;20.49;28.76
64614;BME280;51025;37.772;-122.432;2023-06-24T09:37:56;101188.65;;;20.93;28.73
64614;BME280;51025;37.772;-122.432;2023-06-24T09:40:25;101189.41;;;20.68;28.94
64614;BME280;51025;37.772;-122.432;2023-06-24T09:42:54;101190.63;;;21.13;28.80
64614;BME280;51025;37.772;-122.432;2023-06-24T09:45:25;101186.79;;;20.73;28.86
64614;BME280;51025;37.772;-122.432;2023-06-24T09:47:54;101184.86;;;20.44;28.73
64614;BME280;51025;37.772;-122.432;2023-06-24T09:50:23;101186.06;;;20.86;28.68
64614;BME280;51025;37.772;-122.432;2023-06-24T09:52:53;101188.00;;;20.69;28.76
64614;BME280;51025;37.772;-122.432;2023-06-24T09:55:24;101187.44;;;20.67;28.80
64614;BME280;51025;37.772;-122.432;2023-06-24T09:57:54;101180.47;;;20.80;28.71
64614;BME280;51025;37.772;-122.432;2023-06-24T10:00:24;101176.72;;;20.64;28.80
64614;BME280;51025;37.772;-122.432;2023-06-24T10:02:54;101179.21;;;21.11;28.74
64614;BME280;51025;37.772;-122.432;2023-06-24T10:05:23;101179.45;;;20.38;28.61
64614;BME280;51025;37.772;-122.432;2023-06-24T10:07:51;101179.02;;;20.74;28.75
64614;BME280;51025;37.772;-122.432;2023-06-24T10:10:20;101178.94;;;21.23;28.87
64614;BME280;51025;37.772;-122.432;2023-06-24T10:12:48;101177.69;;;20.75;28.71
64614;BME280;51025;37.772;-122.432;2023-06-24T10:15:17;101175.40;;;21.63;28.54
64614;BME280;51025;37.772;-122.432;2023-06-24T10:17:46;101177.18;;;20.70;28.72
64614;BME280;51025;37.772;-122.432;2023-06-24T10:20:24;101180.17;;;20.65;28.73
64614;BME280;51025;37.772;-122.432;2023-06-24T10:22:53;101181.70;;;20.59;28.75
64614;BME280;51025;37.772;-122.432;2023-06-24T10:25:22;101180.96;;;20.59;28.72
64614;BME280;51025;37.772;-122.432;2023-06-24T10:27:54;101180.17;;;21.26;28.75
64614;BME280;51025;37.772;-122.432;2023-06-24T10:30:23;101174.87;;;20.15;28.71
64614;BME280;51025;37.772;-122.432;2023-06-24T10:32:53;101177.50;;;20.61;28.66
64614;BME280;51025;37.772;-122.432;2023-06-24T10:35:25;101176.52;;;20.61;28.69
64614;BME280;51025;37.772;-122.432;2023-06-24T10:37:56;101173.89;;;20.74;28.53
64614;BME280;51025;37.772;-122.432;2023-06-24T10:40:41;101174.55;;;19.91;28.61
64614;BME280;51025;37.772;-122.432;2023-06-24T10:43:31;101172.92;;;20.91;28.62
64614;BME280;51025;37.772;-122.432;2023-06-24T10:46:00;101173.74;;;20.81;28.49
64614;BME280;51025;37.772;-122.432;2023-06-24T10:48:28;101171.58;;;20.21;28.54
64614;BME280;51025;37.772;-122.432;2023-06-24T10:50:57;101168.57;;;20.51;28.71
64614;BME280;51025;37.772;-122.432;2023-06-24T10:53:26;101165.04;;;20.21;28.55
64614;BME280;51025;37.772;-122.432;2023-06-24T10:55:58;101166.11;;;20.87;28.67
64614;BME280;51025;37.772;-122.432;2023-06-24T10:58:26;101168.65;;;20.10;28.67
64614;BME280;51025;37.772;-122.432;2023-06-24T11:01:07;101172.37;;;21.23;28.62
64614;BME280;51025;37.772;-122.432;2023-06-24T11:03:36;101169.42;;;20.69;28.44
64614;BME280;51025;37.772;-122.432;2023-06-24T11:06:11;101170.86;;;20.83;28.65
64614;BME280;51025;37.772;-122.432;2023-06-24T11:08:44;101174.32;;;20.94;28.54
64614;BME280;51025;37.772;-122.432;2023-06-24T11:11:19;101170.31;;;20.37;28.77
64614;BME280;51025;37.772;-122.432;2023-06-24T11:13:49;101168.58;;;20.74;28.72
64614;BME280;51025;37.772;-122.432;2023-06-24T11:16:21;101169.81;;;21.11;28.64
64614;BME280;51025;37.772;-122.432;2023-06-24T11:18:50;101169.46;;;20.26;28.79
64614;BME280;51025;37.772;-122.432;2023-06-24T11:21:18;101168.63;;;20.57;28.76
64614;BME280;51025;37.772;-122.432;2023-06-24T11:23:46;101167.09;;;20.57;28.54
64614;BME280;51025;37.772;-122.432;2023-06-24T11:26:15;101167.25;;;20.74;28.67
64614;BME280;51025;37.772;-122.432;2023-06-24T11:28:44;101164.93;;;20.71;28.66
64614;BME280;51025;37.772;-122.432;2023-06-24T11:31:12;101168.59;;;20.74;28.70
64614;BME280;51025;37.772;-122.432;2023-06-24T11:33:40;101168.29;;;20.31;28.72
64614;BME280;51025;37.772;-122.432;2023-06-24T11:36:10;101168.79;;;20.28;28.74
64614;BME280;51025;37.772;-122.432;2023-06-24T11:38:39;101163.93;;;20.63;28.72
64614;BME280;51025;37.772;-122.432;2023-06-24T11:41:07;101165.12;;;20.21;28.85
64614;BME280;51025;37.772;-122.432;2023-06-24T11:43:35;101159.74;;;20.94;28.80
64614;BME280;51025;37.772;-122.432;2023-06-24T11:46:04;101163.75;;;20.97;28.80
64614;BME280;51025;37.772;-122.432;2023-06-24T11:48:39;101168.16;;;20.33;28.70
64614;BME280;51025;37.772;-122.432;2023-06-24T11:51:13;101173.89;;;20.63;28.79
64614;BME280;51025;37.772;-122.432;2023-06-24T11:53:42;101172.22;;;20.78;28.61
64614;BME280;51025;37.772;-122.432;2023-06-24T11:56:11;101180.31;;;20.31;28.75
64614;BME280;51025;37.772;-122.432;2023-06-24T11:58:41;101179.67;;;20.16;28.90
64614;BME280;51025;37.772;-122.432;2023-06-24T12:01:10;101183.69;;;20.60;28.79
64614;BME280;51025;37.772;-122.432;2023-06-24T12:03:40;101177.88;;;20.40;28.66
64614;BME280;51025;37.772;-122.432;2023-06-24T12:06:09;101178.38;;;20.27;28.80
64614;BME280;51025;37.772;-122.432;2023-06-24T12:08:37;101179.82;;;20.16;28.87
64614;BME280;51025;37.772;-122.432;2023-06-24T12:11:05;101175.43;;;20.88;28.93
64614;BME280;51025;37.772;-122.432;2023-06-24T12:13:33;101174.50;;;20.20;28.89
64614;BME280;51025;37.772;-122.432;2023-06-24T12:16:01;101175.25;;;20.18;28.86
64614;BME280;51025;37.772;-122.432;2023-06-24T12:18:29;101174.97;;;20.17;28.90
64614;BME280;51025;37.772;-122.432;2023-06-24T12:20:57;101176.83;;;20.89;28.87
64614;BME280;51025;37.772;-122.432;2023-06-24T12:23:25;101178.72;;;20.27;28.75
64614;BME280;51025;37.772;-122.432;2023-06-24T12:25:54;101183.02;;;21.14;28.67
64614;BME280;51025;37.772;-122.432;2023-06-24T12:28:22;101191.85;;;20.17;28.89
64614;BME280;51025;37.772;-122.432;2023-06-24T12:30:51;101198.16;;;20.63;28.76
64614;BME280;51025;37.772;-122.432;2023-06-24T12:33:19;101196.07;;;20.89;28.81